TimeCST,TemperatureF,Dew PointF,Humidity,Sea Level PressureIn,VisibilityMPH,Wind Direction,Wind SpeedMPH,Gust SpeedMPH,PrecipitationIn,Events,Conditions,WindDirDegrees,DateUTC
12:53 AM,50.0,34.0,54,29.88,10.0,SW,17.3,-,N/A,,Clear,230,2012-11-25 06:53:00
1:53 AM,48.9,34.0,56,29.86,10.0,SW,18.4,-,N/A,,Clear,230,2012-11-25 07:53:00
2:53 AM,48.0,34.0,58,29.86,10.0,WSW,17.3,23.0,N/A,,Clear,240,2012-11-25 08:53:00
3:53 AM,43.0,33.1,68,29.86,10.0,WSW,11.5,-,N/A,,Clear,250,2012-11-25 09:53:00
4:53 AM,42.1,30.9,65,29.85,10.0,WSW,10.4,-,N/A,,Clear,250,2012-11-25 10:53:00
5:53 AM,39.0,28.0,65,29.86,10.0,West,8.1,-,N/A,,Clear,260,2012-11-25 11:53:00
6:53 AM,39.0,25.0,57,29.86,10.0,West,10.4,-,N/A,,Clear,270,2012-11-25 12:53:00
7:53 AM,37.0,24.1,59,29.89,10.0,West,9.2,-,N/A,,Clear,260,2012-11-25 13:53:00
8:53 AM,46.9,25.0,42,29.87,10.0,West,11.5,-,N/A,,Clear,280,2012-11-25 14:53:00
9:53 AM,57.0,25.0,29,29.86,10.0,West,15.0,-,N/A,,Clear,280,2012-11-25 15:53:00
10:53 AM,61.0,23.0,23,29.84,10.0,West,10.4,-,N/A,,Clear,280,2012-11-25 16:53:00
11:53 AM,66.0,19.9,17,29.82,10.0,WNW,10.4,-,N/A,,Clear,300,2012-11-25 17:53:00
12:53 PM,69.1,18.0,14,29.78,10.0,West,10.4,-,N/A,,Clear,270,2012-11-25 18:53:00
1:53 PM,71.1,15.1,12,29.75,10.0,West,12.7,-,N/A,,Clear,260,2012-11-25 19:53:00
2:53 PM,73.9,14.0,10,29.74,10.0,West,10.4,-,N/A,,Clear,270,2012-11-25 20:53:00
3:53 PM,73.9,12.0,9,29.75,10.0,West,10.4,-,N/A,,Clear,280,2012-11-25 21:53:00
4:53 PM,73.0,12.0,10,29.75,10.0,WNW,6.9,-,N/A,,Clear,290,2012-11-25 22:53:00
5:53 PM,64.9,12.9,13,29.77,10.0,Calm,Calm,-,N/A,,Clear,0,2012-11-25 23:53:00
6:53 PM,61.0,12.9,15,29.79,10.0,Calm,Calm,-,N/A,,Clear,0,2012-11-26 00:53:00
7:53 PM,55.9,12.9,18,29.81,10.0,SSW,4.6,-,N/A,,Clear,200,2012-11-26 01:53:00
8:53 PM,53.1,12.9,20,29.81,10.0,SSW,5.8,-,N/A,,Clear,210,2012-11-26 02:53:00
9:53 PM,48.0,14.0,26,29.80,10.0,WSW,6.9,-,N/A,,Clear,240,2012-11-26 03:53:00
10:53 PM,46.0,12.9,26,29.81,10.0,West,8.1,-,N/A,,Clear,260,2012-11-26 04:53:00
11:53 PM,43.0,12.9,30,29.80,10.0,West,5.8,-,N/A,,Clear,260,2012-11-26 05:53:00